Ingoey — LDNC — position and weather

sailwx.info

Track history (hours):
 
Tides and Currents Weather Stations Pressure Air Temp Water Temp Dewpoint Dewpoint Depression Visibility Wind Speed Wind Dir Waves Ship Positions

Ingoey

Last reported at 2018-May-10 06:31 UTC. Time now 2018-Jul-20 01:03 UTC.
Position N 70°60' E 024°39'.
Warning: this ship's position is months out of date.

Length 27 m.

Type: High speed craft. MMSI: 258433000.

Date/timePositionNaut miles runAvg speedWind from/ knotsBaromVisibWave heightAir tempDewpointWater temp
2018-May-10 06:31N 70°60' E 024°39'0 0.1
2018-May-10 06:28N 70°60' E 024°39'  
2018-May-04 14:49N 70°41' E 023°35'2 7.6
2018-May-04 14:29N 70°40' E 023°41'0 0.0
2018-May-04 13:46N 70°40' E 023°41'0 0.0
2018-May-04 13:22N 70°40' E 023°41'0 0.0
2018-May-04 11:22N 70°40' E 023°41'0 0.0
2018-May-04 07:46N 70°40' E 023°41'0 0.0
2018-May-04 07:28N 70°40' E 023°41'0 0.0
2018-May-04 07:00N 70°40' E 023°41'3 0.1
2018-May-02 14:55N 70°42' E 023°36'3 6.5
2018-May-02 14:30N 70°40' E 023°41'0 0.0
2018-May-02 14:01N 70°40' E 023°41'0 0.0
2018-May-02 13:31N 70°40' E 023°41'0 0.0
2018-May-02 12:57N 70°40' E 023°41'0 0.0
2018-May-02 12:30N 70°40' E 023°41'0 0.0
2018-May-02 11:54N 70°40' E 023°41'0 0.0
2018-May-02 11:22N 70°40' E 023°41'0 0.0
2018-May-02 11:00N 70°40' E 023°41'0 0.0
2018-May-02 10:29N 70°40' E 023°41'0 0.0
2018-May-02 09:59N 70°40' E 023°41'0 0.0
2018-May-02 09:28N 70°40' E 023°41'0 0.0
2018-May-02 08:59N 70°40' E 023°41'0 0.0
2018-May-02 08:31N 70°40' E 023°41'0 0.0
2018-May-02 07:59N 70°40' E 023°41'0 0.3
2018-May-02 07:30N 70°40' E 023°41'3 0.2
2018-May-01 17:59N 70°42' E 023°36'3 5.8
2018-May-01 17:30N 70°40' E 023°41'0 0.0
2018-May-01 16:59N 70°40' E 023°41'  
Track history (hours):
 
Tides and Currents Weather Stations Pressure Air Temp Water Temp Dewpoint Dewpoint Depression Visibility Wind Speed Wind Dir Waves Ship Positions

Ingoey

Last reported at 2018-May-10 06:31 UTC. Time now 2018-Jul-20 01:03 UTC.
Position N 70°60' E 024°39'.
Warning: this ship's position is months out of date.

Length 27 m.

Type: High speed craft. MMSI: 258433000.

Date/timePositionNaut miles runAvg speedWind from/ knotsBaromVisibWave heightAir tempDewpointWater temp
2018-May-10 06:31N 70°60' E 024°39'0 0.1
2018-May-10 06:28N 70°60' E 024°39'  
2018-May-04 14:49N 70°41' E 023°35'2 7.6
2018-May-04 14:29N 70°40' E 023°41'0 0.0
2018-May-04 13:46N 70°40' E 023°41'0 0.0
2018-May-04 13:22N 70°40' E 023°41'0 0.0
2018-May-04 11:22N 70°40' E 023°41'0 0.0
2018-May-04 07:46N 70°40' E 023°41'0 0.0
2018-May-04 07:28N 70°40' E 023°41'0 0.0
2018-May-04 07:00N 70°40' E 023°41'3 0.1
2018-May-02 14:55N 70°42' E 023°36'3 6.5
2018-May-02 14:30N 70°40' E 023°41'0 0.0
2018-May-02 14:01N 70°40' E 023°41'0 0.0
2018-May-02 13:31N 70°40' E 023°41'0 0.0
2018-May-02 12:57N 70°40' E 023°41'0 0.0
2018-May-02 12:30N 70°40' E 023°41'0 0.0
2018-May-02 11:54N 70°40' E 023°41'0 0.0
2018-May-02 11:22N 70°40' E 023°41'0 0.0
2018-May-02 11:00N 70°40' E 023°41'0 0.0
2018-May-02 10:29N 70°40' E 023°41'0 0.0
2018-May-02 09:59N 70°40' E 023°41'0 0.0
2018-May-02 09:28N 70°40' E 023°41'0 0.0
2018-May-02 08:59N 70°40' E 023°41'0 0.0
2018-May-02 08:31N 70°40' E 023°41'0 0.0
2018-May-02 07:59N 70°40' E 023°41'0 0.3
2018-May-02 07:30N 70°40' E 023°41'3 0.2
2018-May-01 17:59N 70°42' E 023°36'3 5.8
2018-May-01 17:30N 70°40' E 023°41'0 0.0
2018-May-01 16:59N 70°40' E 023°41'  

Dump ship's entire track history